Terminal Aerodrome Forecast
Issued by NWS St Louis, MO

Home | Current Version | Previous Version | Text Only | Print | Product List | Glossary On
Versions: 1 2 3 4 5 6 7 8 9 10 11 12 13 14 15 16 17 18 19 20 21 22 23 24 25 26 27 28 29 30 31 32
000
FTUS43 KLSX 271730
TAFCOU
TAF
KCOU 271730Z 2718/2818 05007KT P6SM VCSH SCT003 OVC008
      TEMPO 2718/2720 3SM -RA BR BKN003
     FM272200 36009KT P6SM OVC015
     FM280800 03005KT P6SM BKN008=

USA.gov is the U.S. government's official web portal to all federal, state and local government web resources and services.